sensor_id;sensor_type;location;lat;lon;timestamp;pressure;altitude;pressure_sealevel;temperature;humidity
49377;BME280;35253;34.688;33.040;2023-04-01T00:02:18;101294.22;;;12.29;94.36
49377;BME280;35253;34.688;33.040;2023-04-01T00:04:44;101291.69;;;12.57;93.03
49377;BME280;35253;34.688;33.040;2023-04-01T00:07:10;101283.25;;;12.49;93.69
49377;BME280;35253;34.688;33.040;2023-04-01T00:09:36;101282.66;;;12.44;95.28
49377;BME280;35253;34.688;33.040;2023-04-01T00:12:03;101282.41;;;12.33;96.30
49377;BME280;35253;34.688;33.040;2023-04-01T00:14:28;101280.13;;;12.56;96.86
49377;BME280;35253;34.688;33.040;2023-04-01T00:16:55;101274.44;;;12.47;98.15
49377;BME280;35253;34.688;33.040;2023-04-01T00:19:21;101280.66;;;12.63;98.53
49377;BME280;35253;34.688;33.040;2023-04-01T00:21:46;101278.22;;;12.74;99.09
49377;BME280;35253;34.688;33.040;2023-04-01T00:24:13;101277.66;;;12.38;99.89
49377;BME280;35253;34.688;33.040;2023-04-01T00:26:39;101279.25;;;12.72;99.13
49377;BME280;35253;34.688;33.040;2023-04-01T00:29:07;101274.97;;;12.53;99.00
49377;BME280;35253;34.688;33.040;2023-04-01T00:31:33;101280.81;;;12.60;99.01
49377;BME280;35253;34.688;33.040;2023-04-01T00:33:59;101280.50;;;12.03;100.00
49377;BME280;35253;34.688;33.040;2023-04-01T00:36:26;101275.34;;;12.00;100.00
49377;BME280;35253;34.688;33.040;2023-04-01T00:38:52;101286.88;;;12.16;100.00
49377;BME280;35253;34.688;33.040;2023-04-01T00:41:18;101283.09;;;12.36;100.00
49377;BME280;35253;34.688;33.040;2023-04-01T00:43:48;101284.81;;;12.53;100.00
49377;BME280;35253;34.688;33.040;2023-04-01T00:46:14;101295.16;;;12.59;100.00
49377;BME280;35253;34.688;33.040;2023-04-01T00:48:53;101284.53;;;12.57;100.00
49377;BME280;35253;34.688;33.040;2023-04-01T00:51:26;101280.50;;;12.50;100.00
49377;BME280;35253;34.688;33.040;2023-04-01T00:53:54;101282.22;;;12.51;100.00
49377;BME280;35253;34.688;33.040;2023-04-01T00:56:27;101284.69;;;12.70;100.00
49377;BME280;35253;34.688;33.040;2023-04-01T00:59:01;101284.47;;;12.12;100.00
49377;BME280;35253;34.688;33.040;2023-04-01T01:01:30;101285.69;;;12.06;100.00
49377;BME280;35253;34.688;33.040;2023-04-01T01:03:56;101281.03;;;12.26;100.00
49377;BME280;35253;34.688;33.040;2023-04-01T01:09:37;101295.88;;;12.31;100.00
49377;BME280;35253;34.688;33.040;2023-04-01T01:15:14;101287.31;;;12.09;100.00
49377;BME280;35253;34.688;33.040;2023-04-01T01:23:55;101296.56;;;12.35;100.00
49377;BME280;35253;34.688;33.040;2023-04-01T01:26:44;101301.38;;;12.44;100.00
49377;BME280;35253;34.688;33.040;2023-04-01T01:37:38;101296.22;;;12.41;100.00
49377;BME280;35253;34.688;33.040;2023-04-01T01:40:09;101301.38;;;12.44;100.00
49377;BME280;35253;34.688;33.040;2023-04-01T01:42:39;101295.25;;;12.42;100.00
49377;BME280;35253;34.688;33.040;2023-04-01T01:45:07;101301.56;;;12.09;100.00
49377;BME280;35253;34.688;33.040;2023-04-01T01:47:35;101291.84;;;11.76;100.00
49377;BME280;35253;34.688;33.040;2023-04-01T01:50:03;101296.38;;;12.06;100.00
49377;BME280;35253;34.688;33.040;2023-04-01T01:52:30;101305.09;;;12.26;100.00
49377;BME280;35253;34.688;33.040;2023-04-01T01:54:57;101297.56;;;12.16;100.00
49377;BME280;35253;34.688;33.040;2023-04-01T01:57:34;101293.28;;;12.30;100.00
49377;BME280;35253;34.688;33.040;2023-04-01T02:00:08;101287.22;;;12.42;100.00
49377;BME280;35253;34.688;33.040;2023-04-01T02:02:46;101301.91;;;12.35;100.00
49377;BME280;35253;34.688;33.040;2023-04-01T02:05:23;101302.59;;;12.38;100.00
49377;BME280;35253;34.688;33.040;2023-04-01T02:08:00;101293.53;;;12.41;100.00
49377;BME280;35253;34.688;33.040;2023-04-01T02:10:28;101290.34;;;12.34;100.00
49377;BME280;35253;34.688;33.040;2023-04-01T02:12:59;101300.69;;;12.25;100.00
49377;BME280;35253;34.688;33.040;2023-04-01T02:15:28;101304.50;;;12.36;100.00
49377;BME280;35253;34.688;33.040;2023-04-01T02:17:56;101307.59;;;12.44;100.00
49377;BME280;35253;34.688;33.040;2023-04-01T02:20:23;101306.13;;;12.39;100.00
49377;BME280;35253;34.688;33.040;2023-04-01T02:22:51;101304.56;;;12.35;100.00
49377;BME280;35253;34.688;33.040;2023-04-01T02:25:23;101309.16;;;12.48;100.00
49377;BME280;35253;34.688;33.040;2023-04-01T02:27:50;101311.63;;;12.51;100.00
49377;BME280;35253;34.688;33.040;2023-04-01T02:30:17;101317.97;;;12.50;100.00
49377;BME280;35253;34.688;33.040;2023-04-01T02:32:43;101323.47;;;12.47;100.00
49377;BME280;35253;34.688;33.040;2023-04-01T02:35:12;101311.75;;;12.50;100.00
49377;BME280;35253;34.688;33.040;2023-04-01T02:37:39;101321.06;;;12.58;100.00
49377;BME280;35253;34.688;33.040;2023-04-01T02:40:12;101314.16;;;12.54;100.00
49377;BME280;35253;34.688;33.040;2023-04-01T02:42:38;101308.63;;;12.57;100.00
49377;BME280;35253;34.688;33.040;2023-04-01T02:45:04;101294.56;;;12.54;100.00
49377;BME280;35253;34.688;33.040;2023-04-01T02:47:30;101302.75;;;12.51;100.00
49377;BME280;35253;34.688;33.040;2023-04-01T02:49:56;101310.00;;;12.49;100.00
49377;BME280;35253;34.688;33.040;2023-04-01T02:52:28;101316.81;;;12.39;100.00
49377;BME280;35253;34.688;33.040;2023-04-01T02:54:55;101321.66;;;12.48;100.00
49377;BME280;35253;34.688;33.040;2023-04-01T02:57:21;101327.41;;;12.56;100.00
49377;BME280;35253;34.688;33.040;2023-04-01T02:59:47;101335.72;;;12.36;100.00
49377;BME280;35253;34.688;33.040;2023-04-01T03:02:14;101319.16;;;12.45;100.00
49377;BME280;35253;34.688;33.040;2023-04-01T03:04:39;101329.84;;;12.45;100.00
49377;BME280;35253;34.688;33.040;2023-04-01T03:07:05;101331.06;;;12.39;100.00
49377;BME280;35253;34.688;33.040;2023-04-01T03:09:31;101329.84;;;12.13;100.00
49377;BME280;35253;34.688;33.040;2023-04-01T03:11:57;101323.97;;;12.23;100.00
49377;BME280;35253;34.688;33.040;2023-04-01T03:14:23;101327.16;;;12.13;100.00
49377;BME280;35253;34.688;33.040;2023-04-01T03:16:48;101326.22;;;12.30;100.00
49377;BME280;35253;34.688;33.040;2023-04-01T03:19:14;101324.84;;;12.23;100.00
49377;BME280;35253;34.688;33.040;2023-04-01T03:21:40;101328.97;;;12.29;100.00
49377;BME280;35253;34.688;33.040;2023-04-01T03:24:06;101331.50;;;12.32;100.00
49377;BME280;35253;34.688;33.040;2023-04-01T03:26:33;101337.34;;;12.38;100.00
49377;BME280;35253;34.688;33.040;2023-04-01T03:28:59;101338.31;;;12.37;100.00
49377;BME280;35253;34.688;33.040;2023-04-01T03:31:25;101343.47;;;12.25;100.00
49377;BME280;35253;34.688;33.040;2023-04-01T03:33:50;101331.56;;;12.14;100.00
49377;BME280;35253;34.688;33.040;2023-04-01T03:36:17;101325.44;;;12.12;100.00
49377;BME280;35253;34.688;33.040;2023-04-01T03:38:43;101328.22;;;12.27;100.00
49377;BME280;35253;34.688;33.040;2023-04-01T03:41:13;101326.97;;;12.01;100.00
49377;BME280;35253;34.688;33.040;2023-04-01T03:43:39;101328.91;;;12.14;100.00
49377;BME280;35253;34.688;33.040;2023-04-01T03:46:05;101327.34;;;12.10;100.00
49377;BME280;35253;34.688;33.040;2023-04-01T03:48:31;101333.63;;;12.25;100.00
49377;BME280;35253;34.688;33.040;2023-04-01T03:50:56;101332.94;;;12.22;100.00
49377;BME280;35253;34.688;33.040;2023-04-01T03:53:22;101337.53;;;12.19;100.00
49377;BME280;35253;34.688;33.040;2023-04-01T03:55:48;101339.47;;;12.16;100.00
49377;BME280;35253;34.688;33.040;2023-04-01T03:58:14;101346.81;;;12.12;100.00
49377;BME280;35253;34.688;33.040;2023-04-01T04:00:39;101345.38;;;12.23;100.00
49377;BME280;35253;34.688;33.040;2023-04-01T04:03:06;101359.34;;;12.43;100.00
49377;BME280;35253;34.688;33.040;2023-04-01T04:05:32;101365.06;;;12.53;100.00
49377;BME280;35253;34.688;33.040;2023-04-01T04:07:58;101362.97;;;12.27;100.00
49377;BME280;35253;34.688;33.040;2023-04-01T04:10:24;101364.34;;;12.34;100.00
49377;BME280;35253;34.688;33.040;2023-04-01T04:12:50;101359.88;;;12.50;100.00
49377;BME280;35253;34.688;33.040;2023-04-01T04:15:16;101355.53;;;12.79;100.00
49377;BME280;35253;34.688;33.040;2023-04-01T04:17:44;101365.59;;;13.05;100.00
49377;BME280;35253;34.688;33.040;2023-04-01T04:20:10;101370.94;;;13.05;100.00
49377;BME280;35253;34.688;33.040;2023-04-01T04:22:36;101376.88;;;13.26;100.00
49377;BME280;35253;34.688;33.040;2023-04-01T04:25:02;101380.69;;;13.51;100.00
49377;BME280;35253;34.688;33.040;2023-04-01T04:27:28;101370.13;;;13.64;100.00
49377;BME280;35253;34.688;33.040;2023-04-01T04:29:54;101358.75;;;13.89;100.00
49377;BME280;35253;34.688;33.040;2023-04-01T04:32:19;101358.25;;;13.96;100.00
49377;BME280;35253;34.688;33.040;2023-04-01T04:34:45;101352.63;;;14.15;100.00
49377;BME280;35253;34.688;33.040;2023-04-01T04:37:11;101353.88;;;14.38;100.00
49377;BME280;35253;34.688;33.040;2023-04-01T04:39:37;101356.84;;;14.48;100.00
49377;BME280;35253;34.688;33.040;2023-04-01T04:42:02;101366.66;;;14.61;100.00
49377;BME280;35253;34.688;33.040;2023-04-01T04:44:28;101364.13;;;14.72;100.00
49377;BME280;35253;34.688;33.040;2023-04-01T04:46:54;101367.75;;;14.85;100.00
49377;BME280;35253;34.688;33.040;2023-04-01T04:49:20;101374.41;;;14.93;100.00
49377;BME280;35253;34.688;33.040;2023-04-01T04:51:45;101375.09;;;14.69;100.00
49377;BME280;35253;34.688;33.040;2023-04-01T04:54:11;101369.97;;;14.38;100.00
49377;BME280;35253;34.688;33.040;2023-04-01T04:56:37;101365.75;;;15.02;100.00
49377;BME280;35253;34.688;33.040;2023-04-01T04:59:02;101366.41;;;15.05;100.00
49377;BME280;35253;34.688;33.040;2023-04-01T05:01:28;101368.63;;;15.25;100.00
49377;BME280;35253;34.688;33.040;2023-04-01T05:03:54;101369.16;;;15.57;100.00
49377;BME280;35253;34.688;33.040;2023-04-01T05:06:19;101376.28;;;15.84;100.00
49377;BME280;35253;34.688;33.040;2023-04-01T05:08:46;101377.31;;;16.06;100.00
49377;BME280;35253;34.688;33.040;2023-04-01T05:11:14;101375.16;;;16.24;100.00
49377;BME280;35253;34.688;33.040;2023-04-01T05:13:40;101373.28;;;15.88;100.00
49377;BME280;35253;34.688;33.040;2023-04-01T05:16:11;101364.19;;;16.27;100.00
49377;BME280;35253;34.688;33.040;2023-04-01T05:18:38;101383.53;;;16.57;100.00
49377;BME280;35253;34.688;33.040;2023-04-01T05:21:04;101386.97;;;16.59;100.00
49377;BME280;35253;34.688;33.040;2023-04-01T05:23:31;101392.97;;;16.76;100.00
49377;BME280;35253;34.688;33.040;2023-04-01T05:25:58;101393.78;;;16.89;100.00
49377;BME280;35253;34.688;33.040;2023-04-01T05:28:23;101393.13;;;16.85;100.00
49377;BME280;35253;34.688;33.040;2023-04-01T05:30:49;101392.97;;;16.99;100.00
49377;BME280;35253;34.688;33.040;2023-04-01T05:33:15;101404.09;;;16.95;100.00
49377;BME280;35253;34.688;33.040;2023-04-01T05:35:41;101406.84;;;17.06;100.00
49377;BME280;35253;34.688;33.040;2023-04-01T05:38:06;101411.59;;;16.79;99.55
49377;BME280;35253;34.688;33.040;2023-04-01T05:40:32;101407.94;;;16.80;99.90
49377;BME280;35253;34.688;33.040;2023-04-01T05:42:58;101404.06;;;16.71;100.00
49377;BME280;35253;34.688;33.040;2023-04-01T05:45:25;101405.38;;;16.65;100.00
49377;BME280;35253;34.688;33.040;2023-04-01T05:47:50;101403.28;;;16.82;99.29
49377;BME280;35253;34.688;33.040;2023-04-01T05:50:16;101407.41;;;16.75;100.00
49377;BME280;35253;34.688;33.040;2023-04-01T05:52:42;101400.53;;;16.71;99.82
49377;BME280;35253;34.688;33.040;2023-04-01T05:55:08;101414.28;;;16.79;99.34
49377;BME280;35253;34.688;33.040;2023-04-01T05:57:34;101410.22;;;16.60;100.00
49377;BME280;35253;34.688;33.040;2023-04-01T06:00:00;101410.00;;;16.63;100.00
49377;BME280;35253;34.688;33.040;2023-04-01T06:02:25;101411.00;;;16.62;99.52
49377;BME280;35253;34.688;33.040;2023-04-01T06:05:08;101418.88;;;16.02;100.00
49377;BME280;35253;34.688;33.040;2023-04-01T06:07:36;101408.94;;;15.65;100.00
49377;BME280;35253;34.688;33.040;2023-04-01T06:10:10;101410.47;;;15.42;100.00
49377;BME280;35253;34.688;33.040;2023-04-01T06:12:47;101414.13;;;15.81;100.00
49377;BME280;35253;34.688;33.040;2023-04-01T06:20:28;101419.09;;;16.12;100.00
49377;BME280;35253;34.688;33.040;2023-04-01T06:31:19;101433.50;;;16.49;100.00
49377;BME280;35253;34.688;33.040;2023-04-01T06:33:58;101437.78;;;16.51;100.00
49377;BME280;35253;34.688;33.040;2023-04-01T06:37:23;101432.19;;;16.29;100.00
49377;BME280;35253;34.688;33.040;2023-04-01T06:45:40;101425.38;;;16.74;100.00
49377;BME280;35253;34.688;33.040;2023-04-01T06:48:13;101427.25;;;16.61;100.00
49377;BME280;35253;34.688;33.040;2023-04-01T06:54:18;101431.00;;;16.33;100.00
49377;BME280;35253;34.688;33.040;2023-04-01T06:56:48;101427.97;;;16.50;100.00
49377;BME280;35253;34.688;33.040;2023-04-01T06:59:20;101424.63;;;16.72;100.00
49377;BME280;35253;34.688;33.040;2023-04-01T07:01:52;101436.97;;;16.87;100.00
49377;BME280;35253;34.688;33.040;2023-04-01T07:04:34;101443.44;;;16.97;100.00
49377;BME280;35253;34.688;33.040;2023-04-01T07:07:12;101446.28;;;17.07;100.00
49377;BME280;35253;34.688;33.040;2023-04-01T07:09:43;101442.75;;;17.06;100.00
49377;BME280;35253;34.688;33.040;2023-04-01T07:12:33;101444.97;;;17.12;100.00
49377;BME280;35253;34.688;33.040;2023-04-01T07:15:33;101443.03;;;17.15;100.00
49377;BME280;35253;34.688;33.040;2023-04-01T07:18:12;101444.97;;;17.12;100.00
49377;BME280;35253;34.688;33.040;2023-04-01T07:20:41;101437.81;;;17.24;100.00
49377;BME280;35253;34.688;33.040;2023-04-01T07:23:16;101440.16;;;17.05;100.00
49377;BME280;35253;34.688;33.040;2023-04-01T07:25:51;101443.69;;;17.29;100.00
49377;BME280;35253;34.688;33.040;2023-04-01T07:28:17;101439.25;;;17.41;100.00
49377;BME280;35253;34.688;33.040;2023-04-01T07:33:37;101439.44;;;17.38;100.00
49377;BME280;35253;34.688;33.040;2023-04-01T07:36:22;101435.78;;;17.39;100.00
49377;BME280;35253;34.688;33.040;2023-04-01T07:55:50;101429.44;;;18.21;100.00
49377;BME280;35253;34.688;33.040;2023-04-01T07:58:40;101432.38;;;18.07;100.00
49377;BME280;35253;34.688;33.040;2023-04-01T08:06:26;101423.41;;;18.17;100.00
49377;BME280;35253;34.688;33.040;2023-04-01T08:12:35;101402.78;;;18.05;100.00
49377;BME280;35253;34.688;33.040;2023-04-01T08:17:18;101415.09;;;18.20;100.00
49377;BME280;35253;34.688;33.040;2023-04-01T08:22:38;101413.88;;;18.46;100.00
49377;BME280;35253;34.688;33.040;2023-04-01T08:25:14;101412.63;;;18.28;100.00
49377;BME280;35253;34.688;33.040;2023-04-01T08:27:51;101421.22;;;18.44;100.00
49377;BME280;35253;34.688;33.040;2023-04-01T08:30:21;101412.66;;;18.62;100.00
49377;BME280;35253;34.688;33.040;2023-04-01T08:33:33;101410.06;;;18.71;100.00
49377;BME280;35253;34.688;33.040;2023-04-01T08:36:05;101412.88;;;18.36;100.00
49377;BME280;35253;34.688;33.040;2023-04-01T08:38:38;101414.09;;;18.32;100.00
49377;BME280;35253;34.688;33.040;2023-04-01T08:42:02;101410.53;;;18.43;100.00
49377;BME280;35253;34.688;33.040;2023-04-01T08:44:11;101398.78;;;18.55;100.00
49377;BME280;35253;34.688;33.040;2023-04-01T08:52:35;101399.22;;;18.82;100.00
49377;BME280;35253;34.688;33.040;2023-04-01T08:55:19;101385.81;;;19.03;100.00
49377;BME280;35253;34.688;33.040;2023-04-01T08:58:03;101389.41;;;19.24;100.00
49377;BME280;35253;34.688;33.040;2023-04-01T09:00:32;101388.63;;;19.33;100.00
49377;BME280;35253;34.688;33.040;2023-04-01T09:06:12;101382.34;;;19.01;100.00
49377;BME280;35253;34.688;33.040;2023-04-01T09:11:33;101364.78;;;19.39;100.00
49377;BME280;35253;34.688;33.040;2023-04-01T09:28:48;101355.97;;;19.25;100.00
49377;BME280;35253;34.688;33.040;2023-04-01T09:42:14;101340.38;;;19.18;100.00
49377;BME280;35253;34.688;33.040;2023-04-01T09:44:51;101353.28;;;19.25;100.00
49377;BME280;35253;34.688;33.040;2023-04-01T10:01:32;101351.09;;;19.19;100.00
49377;BME280;35253;34.688;33.040;2023-04-01T10:06:58;101371.06;;;19.60;100.00
49377;BME280;35253;34.688;33.040;2023-04-01T10:10:10;101350.59;;;19.14;100.00
49377;BME280;35253;34.688;33.040;2023-04-01T10:21:28;101345.28;;;19.56;100.00
49377;BME280;35253;34.688;33.040;2023-04-01T10:27:09;101345.47;;;19.43;100.00
49377;BME280;35253;34.688;33.040;2023-04-01T10:32:31;101334.25;;;19.68;100.00
49377;BME280;35253;34.688;33.040;2023-04-01T10:56:58;101340.00;;;20.05;100.00
49377;BME280;35253;34.688;33.040;2023-04-01T10:59:53;101347.22;;;19.95;100.00
49377;BME280;35253;34.688;33.040;2023-04-01T11:41:09;101339.38;;;20.22;100.00
49377;BME280;35253;34.688;33.040;2023-04-01T11:43:47;101323.88;;;20.84;100.00
49377;BME280;35253;34.688;33.040;2023-04-01T11:46:23;101341.88;;;21.04;100.00
49377;BME280;35253;34.688;33.040;2023-04-01T11:49:00;101337.75;;;20.41;100.00
49377;BME280;35253;34.688;33.040;2023-04-01T11:51:54;101342.69;;;20.66;100.00
49377;BME280;35253;34.688;33.040;2023-04-01T11:54:45;101326.53;;;20.24;100.00
49377;BME280;35253;34.688;33.040;2023-04-01T12:11:19;101309.06;;;21.17;100.00
49377;BME280;35253;34.688;33.040;2023-04-01T12:17:02;101298.22;;;21.26;100.00
49377;BME280;35253;34.688;33.040;2023-04-01T12:19:39;101293.63;;;20.79;100.00
49377;BME280;35253;34.688;33.040;2023-04-01T12:26:27;101322.44;;;20.70;100.00
49377;BME280;35253;34.688;33.040;2023-04-01T12:28:45;101298.47;;;20.25;100.00
49377;BME280;35253;34.688;33.040;2023-04-01T12:37:26;101287.34;;;20.29;100.00
49377;BME280;35253;34.688;33.040;2023-04-01T12:45:33;101289.28;;;20.07;100.00
49377;BME280;35253;34.688;33.040;2023-04-01T12:51:29;101292.19;;;20.65;100.00
49377;BME280;35253;34.688;33.040;2023-04-01T13:05:22;101279.22;;;20.29;100.00
49377;BME280;35253;34.688;33.040;2023-04-01T13:08:05;101269.19;;;20.00;100.00
49377;BME280;35253;34.688;33.040;2023-04-01T13:16:26;101271.69;;;19.92;100.00
49377;BME280;35253;34.688;33.040;2023-04-01T13:19:17;101260.56;;;19.86;100.00
49377;BME280;35253;34.688;33.040;2023-04-01T13:22:19;101257.53;;;20.19;100.00
49377;BME280;35253;34.688;33.040;2023-04-01T13:24:55;101252.38;;;20.06;100.00
49377;BME280;35253;34.688;33.040;2023-04-01T13:27:33;101244.38;;;19.95;100.00
49377;BME280;35253;34.688;33.040;2023-04-01T13:30:18;101259.56;;;20.27;100.00
49377;BME280;35253;34.688;33.040;2023-04-01T13:32:50;101251.50;;;19.66;100.00
49377;BME280;35253;34.688;33.040;2023-04-01T13:38:28;101249.69;;;19.46;100.00
49377;BME280;35253;34.688;33.040;2023-04-01T13:41:05;101246.59;;;19.50;100.00
49377;BME280;35253;34.688;33.040;2023-04-01T13:43:39;101256.31;;;19.42;100.00
49377;BME280;35253;34.688;33.040;2023-04-01T13:46:16;101253.03;;;19.59;100.00
49377;BME280;35253;34.688;33.040;2023-04-01T13:57:17;101265.75;;;19.68;100.00
49377;BME280;35253;34.688;33.040;2023-04-01T14:00:07;101272.50;;;19.53;100.00
49377;BME280;35253;34.688;33.040;2023-04-01T14:05:36;101257.75;;;19.66;100.00
49377;BME280;35253;34.688;33.040;2023-04-01T14:11:39;101262.09;;;19.48;100.00
49377;BME280;35253;34.688;33.040;2023-04-01T14:19:53;101260.50;;;19.25;100.00
49377;BME280;35253;34.688;33.040;2023-04-01T14:28:29;101256.72;;;19.16;100.00
49377;BME280;35253;34.688;33.040;2023-04-01T14:31:21;101250.19;;;19.19;100.00
49377;BME280;35253;34.688;33.040;2023-04-01T14:51:16;101259.06;;;18.89;100.00
49377;BME280;35253;34.688;33.040;2023-04-01T14:53:51;101257.91;;;18.82;100.00
49377;BME280;35253;34.688;33.040;2023-04-01T14:56:42;101258.63;;;19.05;100.00
49377;BME280;35253;34.688;33.040;2023-04-01T14:59:15;101269.41;;;18.84;100.00
49377;BME280;35253;34.688;33.040;2023-04-01T15:07:37;101266.09;;;18.37;100.00
49377;BME280;35253;34.688;33.040;2023-04-01T15:18:26;101270.53;;;18.27;100.00
49377;BME280;35253;34.688;33.040;2023-04-01T15:21:50;101277.50;;;18.30;100.00
49377;BME280;35253;34.688;33.040;2023-04-01T15:35:14;101275.22;;;18.25;100.00
49377;BME280;35253;34.688;33.040;2023-04-01T15:43:31;101285.66;;;17.85;100.00
49377;BME280;35253;34.688;33.040;2023-04-01T15:51:44;101292.78;;;17.75;100.00
49377;BME280;35253;34.688;33.040;2023-04-01T15:57:23;101286.19;;;17.55;100.00
49377;BME280;35253;34.688;33.040;2023-04-01T16:00:10;101301.19;;;17.60;100.00
49377;BME280;35253;34.688;33.040;2023-04-01T16:02:47;101302.81;;;17.62;100.00
49377;BME280;35253;34.688;33.040;2023-04-01T16:22:07;101301.91;;;17.50;100.00
49377;BME280;35253;34.688;33.040;2023-04-01T16:24:59;101300.41;;;17.46;100.00
49377;BME280;35253;34.688;33.040;2023-04-01T16:41:11;101305.44;;;17.51;100.00
49377;BME280;35253;34.688;33.040;2023-04-01T16:43:53;101299.44;;;17.47;100.00
49377;BME280;35253;34.688;33.040;2023-04-01T16:46:32;101304.09;;;17.56;100.00
49377;BME280;35253;34.688;33.040;2023-04-01T17:02:38;101315.38;;;17.50;100.00
49377;BME280;35253;34.688;33.040;2023-04-01T17:05:11;101320.63;;;17.52;100.00
49377;BME280;35253;34.688;33.040;2023-04-01T17:07:48;101322.38;;;17.53;100.00
49377;BME280;35253;34.688;33.040;2023-04-01T17:13:17;101322.72;;;17.48;100.00
49377;BME280;35253;34.688;33.040;2023-04-01T17:21:21;101347.50;;;17.53;100.00
49377;BME280;35253;34.688;33.040;2023-04-01T17:27:30;101347.22;;;17.45;100.00
49377;BME280;35253;34.688;33.040;2023-04-01T17:35:35;101341.63;;;17.25;100.00
49377;BME280;35253;34.688;33.040;2023-04-01T17:43:50;101332.47;;;17.27;100.00
49377;BME280;35253;34.688;33.040;2023-04-01T17:46:30;101338.84;;;17.26;100.00
49377;BME280;35253;34.688;33.040;2023-04-01T17:51:50;101345.69;;;17.30;100.00
49377;BME280;35253;34.688;33.040;2023-04-01T17:54:47;101343.53;;;17.35;100.00
49377;BME280;35253;34.688;33.040;2023-04-01T17:57:34;101337.03;;;17.38;100.00
49377;BME280;35253;34.688;33.040;2023-04-01T18:05:29;101341.78;;;17.34;100.00
49377;BME280;35253;34.688;33.040;2023-04-01T18:08:11;101335.59;;;17.10;100.00
49377;BME280;35253;34.688;33.040;2023-04-01T18:11:08;101349.22;;;17.20;100.00
49377;BME280;35253;34.688;33.040;2023-04-01T18:26:32;101326.47;;;17.00;100.00
49377;BME280;35253;34.688;33.040;2023-04-01T18:31:39;101340.91;;;16.99;100.00
49377;BME280;35253;34.688;33.040;2023-04-01T18:37:27;101331.16;;;16.98;100.00
49377;BME280;35253;34.688;33.040;2023-04-01T18:51:37;101329.53;;;16.72;100.00
49377;BME280;35253;34.688;33.040;2023-04-01T18:56:50;101322.47;;;16.82;100.00
49377;BME280;35253;34.688;33.040;2023-04-01T18:59:25;101330.69;;;16.80;100.00
49377;BME280;35253;34.688;33.040;2023-04-01T19:04:42;101330.38;;;16.96;100.00
49377;BME280;35253;34.688;33.040;2023-04-01T19:15:39;101350.91;;;16.86;100.00
49377;BME280;35253;34.688;33.040;2023-04-01T19:27:37;101358.44;;;16.81;100.00
49377;BME280;35253;34.688;33.040;2023-04-01T19:35:27;101356.66;;;16.68;100.00
49377;BME280;35253;34.688;33.040;2023-04-01T19:41:01;101357.78;;;16.66;100.00
49377;BME280;35253;34.688;33.040;2023-04-01T19:43:54;101358.16;;;16.73;100.00
49377;BME280;35253;34.688;33.040;2023-04-01T19:46:36;101363.22;;;16.77;100.00
49377;BME280;35253;34.688;33.040;2023-04-01T19:49:14;101370.50;;;16.88;100.00
49377;BME280;35253;34.688;33.040;2023-04-01T20:03:15;101371.22;;;16.66;100.00
49377;BME280;35253;34.688;33.040;2023-04-01T20:06:02;101355.53;;;16.47;100.00
49377;BME280;35253;34.688;33.040;2023-04-01T20:14:24;101351.22;;;16.57;100.00
49377;BME280;35253;34.688;33.040;2023-04-01T20:17:07;101355.47;;;16.73;100.00
49377;BME280;35253;34.688;33.040;2023-04-01T20:25:29;101353.81;;;16.46;100.00
49377;BME280;35253;34.688;33.040;2023-04-01T20:28:21;101345.63;;;16.48;100.00
49377;BME280;35253;34.688;33.040;2023-04-01T20:39:28;101343.69;;;16.37;100.00
49377;BME280;35253;34.688;33.040;2023-04-01T20:42:16;101348.34;;;16.35;100.00
49377;BME280;35253;34.688;33.040;2023-04-01T20:50:36;101340.94;;;16.26;100.00
49377;BME280;35253;34.688;33.040;2023-04-01T21:09:49;101338.59;;;16.21;100.00
49377;BME280;35253;34.688;33.040;2023-04-01T21:13:11;101334.94;;;16.22;100.00
49377;BME280;35253;34.688;33.040;2023-04-01T21:21:00;101334.28;;;16.06;100.00
49377;BME280;35253;34.688;33.040;2023-04-01T21:26:32;101339.16;;;15.89;100.00
49377;BME280;35253;34.688;33.040;2023-04-01T22:05:40;101314.47;;;16.20;100.00
49377;BME280;35253;34.688;33.040;2023-04-01T22:08:39;101311.25;;;16.15;100.00
49377;BME280;35253;34.688;33.040;2023-04-01T22:14:02;101320.31;;;16.14;100.00
49377;BME280;35253;34.688;33.040;2023-04-01T22:19:54;101314.94;;;16.01;100.00
49377;BME280;35253;34.688;33.040;2023-04-01T22:25:32;101310.81;;;16.21;100.00
49377;BME280;35253;34.688;33.040;2023-04-01T22:28:45;101297.13;;;16.24;100.00
49377;BME280;35253;34.688;33.040;2023-04-01T22:31:03;101298.22;;;16.21;100.00
49377;BME280;35253;34.688;33.040;2023-04-01T22:38:51;101299.16;;;16.33;100.00
49377;BME280;35253;34.688;33.040;2023-04-01T22:41:49;101295.38;;;16.36;100.00
49377;BME280;35253;34.688;33.040;2023-04-01T22:47:22;101296.31;;;16.47;100.00
49377;BME280;35253;34.688;33.040;2023-04-01T22:50:08;101288.91;;;16.38;100.00
49377;BME280;35253;34.688;33.040;2023-04-01T22:52:42;101278.63;;;16.32;100.00
49377;BME280;35253;34.688;33.040;2023-04-01T22:55:15;101289.00;;;16.49;100.00
49377;BME280;35253;34.688;33.040;2023-04-01T23:00:38;101283.81;;;16.46;100.00
49377;BME280;35253;34.688;33.040;2023-04-01T23:03:29;101282.13;;;16.45;100.00
49377;BME280;35253;34.688;33.040;2023-04-01T23:05:58;101284.00;;;16.32;100.00